sensor_id;sensor_type;location;lat;lon;timestamp;temperature;humidity
29849;DHT22;16728;50.832;5.590;2022-07-06T00:02:19;16.60;99.90
29849;DHT22;16728;50.832;5.590;2022-07-06T00:05:21;16.50;99.90
29849;DHT22;16728;50.832;5.590;2022-07-06T00:08:23;16.50;99.90
29849;DHT22;16728;50.832;5.590;2022-07-06T00:11:33;16.50;99.90
29849;DHT22;16728;50.832;5.590;2022-07-06T00:14:35;16.40;99.90
29849;DHT22;16728;50.832;5.590;2022-07-06T00:17:37;16.40;99.90
29849;DHT22;16728;50.832;5.590;2022-07-06T00:20:48;16.40;99.90
29849;DHT22;16728;50.832;5.590;2022-07-06T00:23:50;16.40;99.90
29849;DHT22;16728;50.832;5.590;2022-07-06T00:27:05;16.30;99.90
29849;DHT22;16728;50.832;5.590;2022-07-06T00:30:07;16.30;99.90
29849;DHT22;16728;50.832;5.590;2022-07-06T00:33:10;16.30;99.90
29849;DHT22;16728;50.832;5.590;2022-07-06T00:36:12;16.20;99.90
29849;DHT22;16728;50.832;5.590;2022-07-06T00:39:14;16.10;99.90
29849;DHT22;16728;50.832;5.590;2022-07-06T00:42:16;16.10;99.90
29849;DHT22;16728;50.832;5.590;2022-07-06T00:45:29;15.90;99.90
29849;DHT22;16728;50.832;5.590;2022-07-06T00:48:30;15.80;99.90
29849;DHT22;16728;50.832;5.590;2022-07-06T00:51:36;15.80;99.90
29849;DHT22;16728;50.832;5.590;2022-07-06T00:54:39;15.70;99.90
29849;DHT22;16728;50.832;5.590;2022-07-06T00:57:44;15.70;99.90
29849;DHT22;16728;50.832;5.590;2022-07-06T01:00:48;15.70;99.90
29849;DHT22;16728;50.832;5.590;2022-07-06T01:03:50;15.80;99.90
29849;DHT22;16728;50.832;5.590;2022-07-06T01:06:52;15.70;99.90
29849;DHT22;16728;50.832;5.590;2022-07-06T01:09:55;15.70;99.90
29849;DHT22;16728;50.832;5.590;2022-07-06T01:12:57;15.50;99.90
29849;DHT22;16728;50.832;5.590;2022-07-06T01:15:59;15.50;99.90
29849;DHT22;16728;50.832;5.590;2022-07-06T01:19:01;15.40;99.90
29849;DHT22;16728;50.832;5.590;2022-07-06T01:22:06;15.40;99.90
29849;DHT22;16728;50.832;5.590;2022-07-06T01:25:09;15.40;99.90
29849;DHT22;16728;50.832;5.590;2022-07-06T01:28:11;15.40;99.90
29849;DHT22;16728;50.832;5.590;2022-07-06T01:31:21;15.40;99.90
29849;DHT22;16728;50.832;5.590;2022-07-06T01:34:23;15.40;99.90
29849;DHT22;16728;50.832;5.590;2022-07-06T01:37:31;15.40;99.90
29849;DHT22;16728;50.832;5.590;2022-07-06T01:40:39;15.40;99.90
29849;DHT22;16728;50.832;5.590;2022-07-06T01:51:19;15.30;99.90
29849;DHT22;16728;50.832;5.590;2022-07-06T01:54:27;15.10;99.90
29849;DHT22;16728;50.832;5.590;2022-07-06T01:57:33;15.20;99.90
29849;DHT22;16728;50.832;5.590;2022-07-06T02:07:05;15.20;99.90
29849;DHT22;16728;50.832;5.590;2022-07-06T02:10:07;15.20;99.90
29849;DHT22;16728;50.832;5.590;2022-07-06T02:13:09;15.10;99.90
29849;DHT22;16728;50.832;5.590;2022-07-06T02:16:11;15.00;99.90
29849;DHT22;16728;50.832;5.590;2022-07-06T02:19:13;15.00;99.90
29849;DHT22;16728;50.832;5.590;2022-07-06T02:22:15;15.00;99.90
29849;DHT22;16728;50.832;5.590;2022-07-06T02:25:17;14.90;99.90
29849;DHT22;16728;50.832;5.590;2022-07-06T02:28:19;14.90;99.90
29849;DHT22;16728;50.832;5.590;2022-07-06T02:31:22;14.80;99.90
29849;DHT22;16728;50.832;5.590;2022-07-06T02:34:24;14.80;99.90
29849;DHT22;16728;50.832;5.590;2022-07-06T02:37:26;14.80;99.90
29849;DHT22;16728;50.832;5.590;2022-07-06T02:40:27;14.80;99.90
29849;DHT22;16728;50.832;5.590;2022-07-06T02:43:29;14.70;99.90
29849;DHT22;16728;50.832;5.590;2022-07-06T02:46:31;14.70;99.90
29849;DHT22;16728;50.832;5.590;2022-07-06T02:49:33;14.60;99.90
29849;DHT22;16728;50.832;5.590;2022-07-06T02:52:35;14.70;99.90
29849;DHT22;16728;50.832;5.590;2022-07-06T02:55:41;14.60;99.90
29849;DHT22;16728;50.832;5.590;2022-07-06T02:58:43;14.60;99.90
29849;DHT22;16728;50.832;5.590;2022-07-06T03:01:45;14.50;99.90
29849;DHT22;16728;50.832;5.590;2022-07-06T03:04:47;14.40;99.90
29849;DHT22;16728;50.832;5.590;2022-07-06T03:07:49;14.40;99.90
29849;DHT22;16728;50.832;5.590;2022-07-06T03:10:51;14.50;99.90
29849;DHT22;16728;50.832;5.590;2022-07-06T03:13:53;14.50;99.90
29849;DHT22;16728;50.832;5.590;2022-07-06T03:16:55;14.50;99.90
29849;DHT22;16728;50.832;5.590;2022-07-06T03:19:57;14.40;99.90
29849;DHT22;16728;50.832;5.590;2022-07-06T03:22:59;14.50;99.90
29849;DHT22;16728;50.832;5.590;2022-07-06T03:26:00;14.50;99.90
29849;DHT22;16728;50.832;5.590;2022-07-06T03:29:02;14.30;99.90
29849;DHT22;16728;50.832;5.590;2022-07-06T03:32:04;14.30;99.90
29849;DHT22;16728;50.832;5.590;2022-07-06T03:35:07;14.30;99.90
29849;DHT22;16728;50.832;5.590;2022-07-06T03:38:09;14.30;99.90
29849;DHT22;16728;50.832;5.590;2022-07-06T03:41:11;14.30;99.90
29849;DHT22;16728;50.832;5.590;2022-07-06T03:44:12;14.30;99.90
29849;DHT22;16728;50.832;5.590;2022-07-06T03:47:14;14.20;99.90
29849;DHT22;16728;50.832;5.590;2022-07-06T03:50:16;14.20;99.90
29849;DHT22;16728;50.832;5.590;2022-07-06T03:53:18;14.20;99.90
29849;DHT22;16728;50.832;5.590;2022-07-06T03:56:20;14.20;99.90
29849;DHT22;16728;50.832;5.590;2022-07-06T03:59:31;14.20;99.90
29849;DHT22;16728;50.832;5.590;2022-07-06T04:02:33;14.20;99.90
29849;DHT22;16728;50.832;5.590;2022-07-06T04:05:35;14.20;99.90
29849;DHT22;16728;50.832;5.590;2022-07-06T04:08:36;14.10;99.90
29849;DHT22;16728;50.832;5.590;2022-07-06T04:11:39;14.20;99.90
29849;DHT22;16728;50.832;5.590;2022-07-06T04:14:40;14.20;99.90
29849;DHT22;16728;50.832;5.590;2022-07-06T04:17:42;14.10;99.90
29849;DHT22;16728;50.832;5.590;2022-07-06T04:20:58;14.10;99.90
29849;DHT22;16728;50.832;5.590;2022-07-06T04:24:00;14.20;99.90
29849;DHT22;16728;50.832;5.590;2022-07-06T04:27:01;14.20;99.90
29849;DHT22;16728;50.832;5.590;2022-07-06T04:30:05;14.30;99.90
29849;DHT22;16728;50.832;5.590;2022-07-06T04:33:07;14.20;99.90
29849;DHT22;16728;50.832;5.590;2022-07-06T04:36:12;14.20;99.90
29849;DHT22;16728;50.832;5.590;2022-07-06T04:39:13;14.10;99.90
29849;DHT22;16728;50.832;5.590;2022-07-06T04:42:15;14.00;99.90
29849;DHT22;16728;50.832;5.590;2022-07-06T04:45:17;14.00;99.90
29849;DHT22;16728;50.832;5.590;2022-07-06T04:48:19;14.00;99.90
29849;DHT22;16728;50.832;5.590;2022-07-06T04:51:21;14.00;99.90
29849;DHT22;16728;50.832;5.590;2022-07-06T04:54:23;14.00;99.90
29849;DHT22;16728;50.832;5.590;2022-07-06T04:57:25;14.10;99.90
29849;DHT22;16728;50.832;5.590;2022-07-06T05:00:27;14.10;99.90
29849;DHT22;16728;50.832;5.590;2022-07-06T05:03:29;14.20;99.90
29849;DHT22;16728;50.832;5.590;2022-07-06T05:06:32;14.10;99.90
29849;DHT22;16728;50.832;5.590;2022-07-06T05:09:34;14.20;99.90
29849;DHT22;16728;50.832;5.590;2022-07-06T05:12:36;14.20;99.90
29849;DHT22;16728;50.832;5.590;2022-07-06T05:15:38;14.30;99.90
29849;DHT22;16728;50.832;5.590;2022-07-06T05:18:40;14.40;99.90
29849;DHT22;16728;50.832;5.590;2022-07-06T05:21:42;14.40;99.90
29849;DHT22;16728;50.832;5.590;2022-07-06T05:24:43;14.50;99.90
29849;DHT22;16728;50.832;5.590;2022-07-06T05:27:45;14.70;99.90
29849;DHT22;16728;50.832;5.590;2022-07-06T05:30:47;14.80;99.90
29849;DHT22;16728;50.832;5.590;2022-07-06T05:33:49;14.80;99.90
29849;DHT22;16728;50.832;5.590;2022-07-06T05:36:51;14.90;99.90
29849;DHT22;16728;50.832;5.590;2022-07-06T05:39:53;15.00;99.90
29849;DHT22;16728;50.832;5.590;2022-07-06T05:42:55;15.00;99.90
29849;DHT22;16728;50.832;5.590;2022-07-06T05:45:56;15.10;99.90
29849;DHT22;16728;50.832;5.590;2022-07-06T05:48:58;15.10;99.90
29849;DHT22;16728;50.832;5.590;2022-07-06T05:52:19;15.20;99.90
29849;DHT22;16728;50.832;5.590;2022-07-06T05:55:20;15.30;99.90
29849;DHT22;16728;50.832;5.590;2022-07-06T05:58:22;15.30;99.90
29849;DHT22;16728;50.832;5.590;2022-07-06T06:01:27;15.40;99.90
29849;DHT22;16728;50.832;5.590;2022-07-06T06:04:29;15.50;99.90
29849;DHT22;16728;50.832;5.590;2022-07-06T06:07:33;15.50;99.90
29849;DHT22;16728;50.832;5.590;2022-07-06T06:10:35;15.70;99.90
29849;DHT22;16728;50.832;5.590;2022-07-06T06:13:37;15.80;99.90
29849;DHT22;16728;50.832;5.590;2022-07-06T06:16:39;15.90;99.90
29849;DHT22;16728;50.832;5.590;2022-07-06T06:19:41;16.00;99.90
29849;DHT22;16728;50.832;5.590;2022-07-06T06:22:50;16.00;99.90
29849;DHT22;16728;50.832;5.590;2022-07-06T06:25:52;16.20;99.90
29849;DHT22;16728;50.832;5.590;2022-07-06T06:28:54;16.20;99.90
29849;DHT22;16728;50.832;5.590;2022-07-06T06:31:56;16.30;99.90
29849;DHT22;16728;50.832;5.590;2022-07-06T06:34:57;16.40;99.90
29849;DHT22;16728;50.832;5.590;2022-07-06T06:37:59;16.40;99.90
29849;DHT22;16728;50.832;5.590;2022-07-06T06:41:01;16.60;99.90
29849;DHT22;16728;50.832;5.590;2022-07-06T06:44:03;16.50;99.90
29849;DHT22;16728;50.832;5.590;2022-07-06T06:47:05;16.60;99.90
29849;DHT22;16728;50.832;5.590;2022-07-06T06:50:07;16.60;99.90
29849;DHT22;16728;50.832;5.590;2022-07-06T06:53:09;16.60;99.90
29849;DHT22;16728;50.832;5.590;2022-07-06T06:56:11;16.70;99.90
29849;DHT22;16728;50.832;5.590;2022-07-06T06:59:13;16.70;99.90
29849;DHT22;16728;50.832;5.590;2022-07-06T07:02:18;16.70;99.90
29849;DHT22;16728;50.832;5.590;2022-07-06T07:05:21;16.70;99.90
29849;DHT22;16728;50.832;5.590;2022-07-06T07:08:23;16.70;99.90
29849;DHT22;16728;50.832;5.590;2022-07-06T07:11:26;16.80;99.90
29849;DHT22;16728;50.832;5.590;2022-07-06T07:14:28;16.80;99.90
29849;DHT22;16728;50.832;5.590;2022-07-06T07:17:30;16.90;99.90
29849;DHT22;16728;50.832;5.590;2022-07-06T07:20:32;17.00;99.90
29849;DHT22;16728;50.832;5.590;2022-07-06T07:23:35;17.00;99.90
29849;DHT22;16728;50.832;5.590;2022-07-06T07:26:37;17.00;99.90
29849;DHT22;16728;50.832;5.590;2022-07-06T07:29:39;17.10;99.90
29849;DHT22;16728;50.832;5.590;2022-07-06T07:32:40;17.20;99.90
29849;DHT22;16728;50.832;5.590;2022-07-06T07:35:42;17.20;99.90
29849;DHT22;16728;50.832;5.590;2022-07-06T07:38:44;17.20;99.90
29849;DHT22;16728;50.832;5.590;2022-07-06T07:41:46;17.20;99.90
29849;DHT22;16728;50.832;5.590;2022-07-06T07:44:48;17.20;99.90
29849;DHT22;16728;50.832;5.590;2022-07-06T07:47:50;17.30;99.90
29849;DHT22;16728;50.832;5.590;2022-07-06T07:50:52;17.40;99.90
29849;DHT22;16728;50.832;5.590;2022-07-06T07:53:54;17.40;99.90
29849;DHT22;16728;50.832;5.590;2022-07-06T07:56:56;17.50;99.90
29849;DHT22;16728;50.832;5.590;2022-07-06T07:59:58;17.60;99.40
29849;DHT22;16728;50.832;5.590;2022-07-06T08:03:00;17.70;98.90
29849;DHT22;16728;50.832;5.590;2022-07-06T08:06:02;17.90;98.10
29849;DHT22;16728;50.832;5.590;2022-07-06T08:09:05;17.90;97.40
29849;DHT22;16728;50.832;5.590;2022-07-06T08:12:09;17.90;96.80
29849;DHT22;16728;50.832;5.590;2022-07-06T08:15:11;18.10;96.40
29849;DHT22;16728;50.832;5.590;2022-07-06T08:18:12;18.00;97.00
29849;DHT22;16728;50.832;5.590;2022-07-06T08:21:14;18.10;97.30
29849;DHT22;16728;50.832;5.590;2022-07-06T08:24:26;18.20;97.40
29849;DHT22;16728;50.832;5.590;2022-07-06T08:27:28;18.30;97.20
29849;DHT22;16728;50.832;5.590;2022-07-06T08:30:30;18.30;96.70
29849;DHT22;16728;50.832;5.590;2022-07-06T08:33:36;18.30;96.40
29849;DHT22;16728;50.832;5.590;2022-07-06T08:36:38;18.40;96.00
29849;DHT22;16728;50.832;5.590;2022-07-06T08:39:40;18.40;96.10
29849;DHT22;16728;50.832;5.590;2022-07-06T08:42:42;18.40;94.60
29849;DHT22;16728;50.832;5.590;2022-07-06T08:45:46;18.40;94.70
29849;DHT22;16728;50.832;5.590;2022-07-06T08:48:50;18.50;94.70
29849;DHT22;16728;50.832;5.590;2022-07-06T08:51:52;18.50;94.60
29849;DHT22;16728;50.832;5.590;2022-07-06T08:54:54;18.60;95.10
29849;DHT22;16728;50.832;5.590;2022-07-06T08:57:57;18.70;94.80
29849;DHT22;16728;50.832;5.590;2022-07-06T09:00:59;18.60;94.70
29849;DHT22;16728;50.832;5.590;2022-07-06T09:04:05;18.70;95.20
29849;DHT22;16728;50.832;5.590;2022-07-06T09:07:09;18.60;95.00
29849;DHT22;16728;50.832;5.590;2022-07-06T09:10:11;18.70;94.50
29849;DHT22;16728;50.832;5.590;2022-07-06T09:13:13;18.80;93.50
29849;DHT22;16728;50.832;5.590;2022-07-06T09:16:16;18.90;93.70
29849;DHT22;16728;50.832;5.590;2022-07-06T09:19:39;18.90;93.70
29849;DHT22;16728;50.832;5.590;2022-07-06T09:22:41;19.00;93.40
29849;DHT22;16728;50.832;5.590;2022-07-06T09:25:47;19.10;93.50
29849;DHT22;16728;50.832;5.590;2022-07-06T09:28:51;19.10;93.20
29849;DHT22;16728;50.832;5.590;2022-07-06T09:31:57;19.10;93.10
29849;DHT22;16728;50.832;5.590;2022-07-06T09:34:59;19.10;93.60
29849;DHT22;16728;50.832;5.590;2022-07-06T09:38:07;19.10;94.00
29849;DHT22;16728;50.832;5.590;2022-07-06T09:41:09;19.10;94.30
29849;DHT22;16728;50.832;5.590;2022-07-06T09:44:11;19.10;94.30
29849;DHT22;16728;50.832;5.590;2022-07-06T09:47:13;19.10;94.00
29849;DHT22;16728;50.832;5.590;2022-07-06T09:50:16;19.10;94.30
29849;DHT22;16728;50.832;5.590;2022-07-06T09:53:23;19.10;93.60
29849;DHT22;16728;50.832;5.590;2022-07-06T09:56:39;19.10;93.70
29849;DHT22;16728;50.832;5.590;2022-07-06T09:59:41;19.10;93.70
29849;DHT22;16728;50.832;5.590;2022-07-06T10:02:43;19.20;93.60
29849;DHT22;16728;50.832;5.590;2022-07-06T10:05:46;19.30;93.40
29849;DHT22;16728;50.832;5.590;2022-07-06T10:08:49;19.40;93.50
29849;DHT22;16728;50.832;5.590;2022-07-06T10:11:53;19.50;93.00
29849;DHT22;16728;50.832;5.590;2022-07-06T10:14:55;19.70;93.00
29849;DHT22;16728;50.832;5.590;2022-07-06T10:18:04;19.60;93.10
29849;DHT22;16728;50.832;5.590;2022-07-06T10:21:06;19.70;92.40
29849;DHT22;16728;50.832;5.590;2022-07-06T10:24:09;19.70;93.20
29849;DHT22;16728;50.832;5.590;2022-07-06T10:27:13;19.60;92.90
29849;DHT22;16728;50.832;5.590;2022-07-06T10:30:16;19.60;92.50
29849;DHT22;16728;50.832;5.590;2022-07-06T10:33:19;19.60;93.30
29849;DHT22;16728;50.832;5.590;2022-07-06T10:36:29;19.70;94.00
29849;DHT22;16728;50.832;5.590;2022-07-06T10:39:38;19.70;94.10
29849;DHT22;16728;50.832;5.590;2022-07-06T10:43:02;19.70;94.10
29849;DHT22;16728;50.832;5.590;2022-07-06T10:46:15;19.70;93.40
29849;DHT22;16728;50.832;5.590;2022-07-06T10:49:19;19.80;93.60
29849;DHT22;16728;50.832;5.590;2022-07-06T10:52:51;19.80;93.30
29849;DHT22;16728;50.832;5.590;2022-07-06T10:55:56;19.80;93.10
29849;DHT22;16728;50.832;5.590;2022-07-06T10:59:02;19.80;92.90
29849;DHT22;16728;50.832;5.590;2022-07-06T11:02:19;19.90;93.20
29849;DHT22;16728;50.832;5.590;2022-07-06T11:06:00;19.90;93.10
29849;DHT22;16728;50.832;5.590;2022-07-06T11:09:11;19.80;93.30
29849;DHT22;16728;50.832;5.590;2022-07-06T11:12:17;19.90;93.00
29849;DHT22;16728;50.832;5.590;2022-07-06T11:15:47;19.80;92.40
29849;DHT22;16728;50.832;5.590;2022-07-06T11:22:08;19.80;92.90
29849;DHT22;16728;50.832;5.590;2022-07-06T11:25:11;19.90;93.00
29849;DHT22;16728;50.832;5.590;2022-07-06T11:28:12;19.90;92.80
29849;DHT22;16728;50.832;5.590;2022-07-06T11:31:17;19.90;93.00
29849;DHT22;16728;50.832;5.590;2022-07-06T11:34:24;20.10;93.00
29849;DHT22;16728;50.832;5.590;2022-07-06T11:37:27;20.10;93.00
29849;DHT22;16728;50.832;5.590;2022-07-06T11:40:28;20.10;92.70
29849;DHT22;16728;50.832;5.590;2022-07-06T11:43:31;20.20;92.20
29849;DHT22;16728;50.832;5.590;2022-07-06T11:46:34;20.10;92.20
29849;DHT22;16728;50.832;5.590;2022-07-06T11:49:38;20.10;92.00
29849;DHT22;16728;50.832;5.590;2022-07-06T11:52:40;20.10;91.80
29849;DHT22;16728;50.832;5.590;2022-07-06T11:55:42;20.10;92.20
29849;DHT22;16728;50.832;5.590;2022-07-06T11:58:45;20.10;92.50
29849;DHT22;16728;50.832;5.590;2022-07-06T12:01:48;20.20;92.30
29849;DHT22;16728;50.832;5.590;2022-07-06T12:04:51;20.10;92.70
29849;DHT22;16728;50.832;5.590;2022-07-06T12:08:04;20.10;93.00
29849;DHT22;16728;50.832;5.590;2022-07-06T12:11:06;20.10;93.10
29849;DHT22;16728;50.832;5.590;2022-07-06T12:14:19;20.20;93.60
29849;DHT22;16728;50.832;5.590;2022-07-06T12:17:22;20.20;93.50
29849;DHT22;16728;50.832;5.590;2022-07-06T12:20:25;20.30;93.20
29849;DHT22;16728;50.832;5.590;2022-07-06T12:23:41;20.30;93.00
29849;DHT22;16728;50.832;5.590;2022-07-06T12:26:43;20.40;93.10
29849;DHT22;16728;50.832;5.590;2022-07-06T12:29:46;20.40;92.70
29849;DHT22;16728;50.832;5.590;2022-07-06T12:33:15;20.40;92.80
29849;DHT22;16728;50.832;5.590;2022-07-06T12:36:17;20.40;93.60
29849;DHT22;16728;50.832;5.590;2022-07-06T12:39:25;20.60;93.00
29849;DHT22;16728;50.832;5.590;2022-07-06T12:42:27;20.70;93.20
29849;DHT22;16728;50.832;5.590;2022-07-06T12:45:31;20.70;92.70
29849;DHT22;16728;50.832;5.590;2022-07-06T12:48:51;20.70;93.20
29849;DHT22;16728;50.832;5.590;2022-07-06T12:55:00;20.70;92.40
29849;DHT22;16728;50.832;5.590;2022-07-06T12:58:18;20.80;92.40
29849;DHT22;16728;50.832;5.590;2022-07-06T13:01:20;20.80;92.30
29849;DHT22;16728;50.832;5.590;2022-07-06T13:04:24;21.00;93.00
29849;DHT22;16728;50.832;5.590;2022-07-06T13:07:26;21.00;92.90
29849;DHT22;16728;50.832;5.590;2022-07-06T13:10:29;21.00;92.30
29849;DHT22;16728;50.832;5.590;2022-07-06T13:13:32;20.90;92.30
29849;DHT22;16728;50.832;5.590;2022-07-06T13:16:45;20.90;92.20
29849;DHT22;16728;50.832;5.590;2022-07-06T13:19:48;20.90;92.60
29849;DHT22;16728;50.832;5.590;2022-07-06T13:22:50;21.00;93.00
29849;DHT22;16728;50.832;5.590;2022-07-06T13:25:52;21.00;93.10
29849;DHT22;16728;50.832;5.590;2022-07-06T13:28:55;21.10;93.30
29849;DHT22;16728;50.832;5.590;2022-07-06T13:31:57;21.10;92.90
29849;DHT22;16728;50.832;5.590;2022-07-06T13:34:59;21.20;92.70
29849;DHT22;16728;50.832;5.590;2022-07-06T13:38:01;21.20;92.50
29849;DHT22;16728;50.832;5.590;2022-07-06T13:41:03;21.20;92.70
29849;DHT22;16728;50.832;5.590;2022-07-06T13:44:04;21.20;92.80
29849;DHT22;16728;50.832;5.590;2022-07-06T13:47:15;21.10;92.60
29849;DHT22;16728;50.832;5.590;2022-07-06T13:50:18;21.10;92.60
29849;DHT22;16728;50.832;5.590;2022-07-06T13:53:19;21.20;93.30
29849;DHT22;16728;50.832;5.590;2022-07-06T13:56:21;21.20;92.80
29849;DHT22;16728;50.832;5.590;2022-07-06T13:59:23;21.10;92.80
29849;DHT22;16728;50.832;5.590;2022-07-06T14:02:25;21.20;92.90
29849;DHT22;16728;50.832;5.590;2022-07-06T14:05:29;21.30;92.70
29849;DHT22;16728;50.832;5.590;2022-07-06T14:08:31;21.30;92.70
29849;DHT22;16728;50.832;5.590;2022-07-06T14:11:34;21.40;92.50
29849;DHT22;16728;50.832;5.590;2022-07-06T14:14:35;21.40;92.40
29849;DHT22;16728;50.832;5.590;2022-07-06T14:17:37;21.40;92.60
29849;DHT22;16728;50.832;5.590;2022-07-06T14:20:40;21.40;92.20
29849;DHT22;16728;50.832;5.590;2022-07-06T14:23:42;21.30;92.50
29849;DHT22;16728;50.832;5.590;2022-07-06T14:26:44;21.30;92.50
29849;DHT22;16728;50.832;5.590;2022-07-06T14:29:46;21.30;92.70
29849;DHT22;16728;50.832;5.590;2022-07-06T14:32:48;21.30;92.50
29849;DHT22;16728;50.832;5.590;2022-07-06T14:35:50;21.40;92.50
29849;DHT22;16728;50.832;5.590;2022-07-06T14:38:52;21.30;92.20
29849;DHT22;16728;50.832;5.590;2022-07-06T14:41:54;21.50;92.40
29849;DHT22;16728;50.832;5.590;2022-07-06T14:44:56;21.50;92.50
29849;DHT22;16728;50.832;5.590;2022-07-06T14:47:58;21.50;92.00
29849;DHT22;16728;50.832;5.590;2022-07-06T14:51:00;21.50;92.00
29849;DHT22;16728;50.832;5.590;2022-07-06T14:54:01;21.50;92.40
29849;DHT22;16728;50.832;5.590;2022-07-06T14:57:04;21.60;92.30
29849;DHT22;16728;50.832;5.590;2022-07-06T15:00:06;21.60;92.00
29849;DHT22;16728;50.832;5.590;2022-07-06T15:03:08;21.60;92.40
29849;DHT22;16728;50.832;5.590;2022-07-06T15:06:10;21.60;91.90
29849;DHT22;16728;50.832;5.590;2022-07-06T15:09:33;21.70;92.30
29849;DHT22;16728;50.832;5.590;2022-07-06T15:12:36;21.70;91.80
29849;DHT22;16728;50.832;5.590;2022-07-06T15:15:38;21.70;92.30
29849;DHT22;16728;50.832;5.590;2022-07-06T15:19:00;21.70;92.10
29849;DHT22;16728;50.832;5.590;2022-07-06T15:22:02;21.70;92.50
29849;DHT22;16728;50.832;5.590;2022-07-06T15:25:04;21.70;92.60
29849;DHT22;16728;50.832;5.590;2022-07-06T15:28:06;21.70;92.50
29849;DHT22;16728;50.832;5.590;2022-07-06T15:31:08;21.70;92.20
29849;DHT22;16728;50.832;5.590;2022-07-06T15:34:10;21.70;92.40
29849;DHT22;16728;50.832;5.590;2022-07-06T15:37:12;21.70;92.90
29849;DHT22;16728;50.832;5.590;2022-07-06T15:40:24;21.80;92.80
29849;DHT22;16728;50.832;5.590;2022-07-06T15:43:32;21.80;92.90
29849;DHT22;16728;50.832;5.590;2022-07-06T15:46:34;21.80;92.90
29849;DHT22;16728;50.832;5.590;2022-07-06T15:49:36;21.80;92.80
29849;DHT22;16728;50.832;5.590;2022-07-06T15:52:38;21.90;92.70
29849;DHT22;16728;50.832;5.590;2022-07-06T15:55:40;21.90;92.50
29849;DHT22;16728;50.832;5.590;2022-07-06T15:58:42;22.00;92.20
29849;DHT22;16728;50.832;5.590;2022-07-06T16:01:44;22.00;92.40
29849;DHT22;16728;50.832;5.590;2022-07-06T16:04:54;22.00;92.40
29849;DHT22;16728;50.832;5.590;2022-07-06T16:07:57;22.00;92.20
29849;DHT22;16728;50.832;5.590;2022-07-06T16:11:20;21.90;92.10
29849;DHT22;16728;50.832;5.590;2022-07-06T16:14:22;21.90;92.30
29849;DHT22;16728;50.832;5.590;2022-07-06T16:17:24;21.90;92.50
29849;DHT22;16728;50.832;5.590;2022-07-06T16:20:26;21.90;93.10
29849;DHT22;16728;50.832;5.590;2022-07-06T16:23:28;21.90;92.80
29849;DHT22;16728;50.832;5.590;2022-07-06T16:26:31;21.90;92.70
29849;DHT22;16728;50.832;5.590;2022-07-06T16:29:33;21.80;92.70
29849;DHT22;16728;50.832;5.590;2022-07-06T16:32:35;21.80;92.80
29849;DHT22;16728;50.832;5.590;2022-07-06T16:35:38;21.80;93.10
29849;DHT22;16728;50.832;5.590;2022-07-06T16:38:51;21.90;93.30
29849;DHT22;16728;50.832;5.590;2022-07-06T16:41:52;22.00;93.60
29849;DHT22;16728;50.832;5.590;2022-07-06T16:44:55;22.00;93.20
29849;DHT22;16728;50.832;5.590;2022-07-06T16:47:58;21.90;93.10
29849;DHT22;16728;50.832;5.590;2022-07-06T16:51:00;21.90;93.00
29849;DHT22;16728;50.832;5.590;2022-07-06T16:54:03;21.90;93.10
29849;DHT22;16728;50.832;5.590;2022-07-06T16:57:05;21.90;93.10
29849;DHT22;16728;50.832;5.590;2022-07-06T17:00:07;21.90;93.30
29849;DHT22;16728;50.832;5.590;2022-07-06T17:03:09;21.90;93.40
29849;DHT22;16728;50.832;5.590;2022-07-06T17:06:11;21.90;93.60
29849;DHT22;16728;50.832;5.590;2022-07-06T17:09:14;21.90;93.80
29849;DHT22;16728;50.832;5.590;2022-07-06T17:12:16;21.90;94.00
29849;DHT22;16728;50.832;5.590;2022-07-06T17:15:18;21.90;94.20
29849;DHT22;16728;50.832;5.590;2022-07-06T17:18:20;21.90;94.10
29849;DHT22;16728;50.832;5.590;2022-07-06T17:21:22;22.00;94.00
29849;DHT22;16728;50.832;5.590;2022-07-06T17:24:26;22.00;94.10
29849;DHT22;16728;50.832;5.590;2022-07-06T17:27:28;22.00;94.00
29849;DHT22;16728;50.832;5.590;2022-07-06T17:30:30;21.90;94.00
29849;DHT22;16728;50.832;5.590;2022-07-06T17:33:34;21.90;94.40
29849;DHT22;16728;50.832;5.590;2022-07-06T17:36:36;21.90;94.30
29849;DHT22;16728;50.832;5.590;2022-07-06T17:39:38;21.90;94.40
29849;DHT22;16728;50.832;5.590;2022-07-06T17:42:40;21.90;94.40
29849;DHT22;16728;50.832;5.590;2022-07-06T17:45:42;21.80;94.50
29849;DHT22;16728;50.832;5.590;2022-07-06T17:48:44;21.90;94.90
29849;DHT22;16728;50.832;5.590;2022-07-06T17:51:46;21.80;94.90
29849;DHT22;16728;50.832;5.590;2022-07-06T17:54:48;21.80;94.90
29849;DHT22;16728;50.832;5.590;2022-07-06T17:57:55;21.80;94.80
29849;DHT22;16728;50.832;5.590;2022-07-06T18:00:57;21.80;94.90
29849;DHT22;16728;50.832;5.590;2022-07-06T18:04:00;21.80;95.10
29849;DHT22;16728;50.832;5.590;2022-07-06T18:07:02;21.70;95.20
29849;DHT22;16728;50.832;5.590;2022-07-06T18:10:05;21.70;95.10
29849;DHT22;16728;50.832;5.590;2022-07-06T18:13:08;21.60;95.20
29849;DHT22;16728;50.832;5.590;2022-07-06T18:16:10;21.60;95.60
29849;DHT22;16728;50.832;5.590;2022-07-06T18:19:12;21.50;95.70
29849;DHT22;16728;50.832;5.590;2022-07-06T18:22:14;21.40;95.90
29849;DHT22;16728;50.832;5.590;2022-07-06T18:25:16;21.40;96.30
29849;DHT22;16728;50.832;5.590;2022-07-06T18:28:19;21.40;96.50
29849;DHT22;16728;50.832;5.590;2022-07-06T18:31:21;21.40;96.60
29849;DHT22;16728;50.832;5.590;2022-07-06T18:34:23;21.30;96.70
29849;DHT22;16728;50.832;5.590;2022-07-06T18:37:24;21.30;96.70
29849;DHT22;16728;50.832;5.590;2022-07-06T18:40:27;21.30;96.80
29849;DHT22;16728;50.832;5.590;2022-07-06T18:43:29;21.30;96.80
29849;DHT22;16728;50.832;5.590;2022-07-06T18:46:31;21.30;96.70
29849;DHT22;16728;50.832;5.590;2022-07-06T18:49:33;21.30;96.70
29849;DHT22;16728;50.832;5.590;2022-07-06T18:52:35;21.30;96.80
29849;DHT22;16728;50.832;5.590;2022-07-06T18:55:37;21.30;96.90
29849;DHT22;16728;50.832;5.590;2022-07-06T18:58:39;21.30;96.90
29849;DHT22;16728;50.832;5.590;2022-07-06T19:01:41;21.30;97.00
29849;DHT22;16728;50.832;5.590;2022-07-06T19:04:43;21.20;97.20
29849;DHT22;16728;50.832;5.590;2022-07-06T19:07:45;21.20;97.30
29849;DHT22;16728;50.832;5.590;2022-07-06T19:10:47;21.20;97.70
29849;DHT22;16728;50.832;5.590;2022-07-06T19:13:49;21.20;97.50
29849;DHT22;16728;50.832;5.590;2022-07-06T19:17:02;21.10;97.60
29849;DHT22;16728;50.832;5.590;2022-07-06T19:20:05;21.10;97.70
29849;DHT22;16728;50.832;5.590;2022-07-06T19:23:07;21.10;97.90
29849;DHT22;16728;50.832;5.590;2022-07-06T19:26:09;21.10;98.00
29849;DHT22;16728;50.832;5.590;2022-07-06T19:29:11;21.10;98.30
29849;DHT22;16728;50.832;5.590;2022-07-06T19:32:13;21.00;98.50
29849;DHT22;16728;50.832;5.590;2022-07-06T19:35:15;21.00;98.60
29849;DHT22;16728;50.832;5.590;2022-07-06T19:38:17;21.00;98.70
29849;DHT22;16728;50.832;5.590;2022-07-06T19:41:19;20.90;98.70